createdAt,value
2023-03-25T00:00:50.133Z,68.80
2023-03-25T00:05:24.500Z,68.55
2023-03-25T00:08:29.546Z,67.41
2023-03-25T00:11:32.735Z,66.61
2023-03-25T00:14:37.128Z,65.92
2023-03-25T00:17:40.486Z,65.24
2023-03-25T00:20:49.683Z,64.69
2023-03-25T00:23:58.029Z,64.41
2023-03-25T00:27:01.209Z,64.69
2023-03-25T00:30:12.855Z,64.84
2023-03-25T00:33:19.341Z,64.77
2023-03-25T00:36:24.972Z,64.69
2023-03-25T00:39:30.437Z,64.59
2023-03-25T00:42:34.407Z,64.60
2023-03-25T00:45:41.106Z,64.48
2023-03-25T00:48:45.515Z,64.44
2023-03-25T00:51:52.865Z,64.44
2023-03-25T00:55:01.481Z,64.55
2023-03-25T00:58:04.846Z,64.41
2023-03-25T01:01:19.545Z,64.26
2023-03-25T01:04:23.841Z,64.10
2023-03-25T01:07:28.894Z,63.83
2023-03-25T01:10:31.960Z,63.45
2023-03-25T01:13:37.383Z,63.38
2023-03-25T01:16:43.081Z,62.98
2023-03-25T01:19:45.683Z,62.88
2023-03-25T01:22:49.817Z,62.84
2023-03-25T01:25:52.161Z,62.66
2023-03-25T01:28:55.570Z,62.35
2023-03-25T01:31:58.361Z,62.28
2023-03-25T01:35:06.673Z,62.15
2023-03-25T01:38:10.987Z,62.09
2023-03-25T01:41:13.369Z,62.21
2023-03-25T01:44:24.900Z,62.22
2023-03-25T01:47:28.245Z,62.08
2023-03-25T01:50:39.019Z,62.42
2023-03-25T01:53:42.385Z,62.68
2023-03-25T01:56:48.172Z,63.22
2023-03-25T01:59:55.034Z,63.40
2023-03-25T02:05:26.716Z,63.71
2023-03-25T02:08:32.704Z,63.47
2023-03-25T02:11:35.800Z,63.31
2023-03-25T02:14:40.983Z,63.47
2023-03-25T02:17:44.841Z,63.34
2023-03-25T02:21:10.826Z,63.28
2023-03-25T02:24:59.391Z,63.18
2023-03-25T02:28:35.255Z,63.37
2023-03-25T02:31:51.353Z,63.24
2023-03-25T02:35:24.493Z,63.25
2023-03-25T02:39:05.322Z,63.21
2023-03-25T02:42:26.393Z,63.33
2023-03-25T02:45:37.657Z,63.56
2023-03-25T02:49:12.491Z,63.63
2023-03-25T02:52:25.231Z,63.89
2023-03-25T02:55:35.212Z,63.88
2023-03-25T02:58:41.407Z,63.85
2023-03-25T03:01:46.095Z,63.74
2023-03-25T03:04:56.083Z,63.68
2023-03-25T03:08:48.454Z,63.96
2023-03-25T03:12:03.022Z,64.01
2023-03-25T03:15:22.794Z,64.33
2023-03-25T03:19:01.816Z,65.05
2023-03-25T03:22:37.204Z,65.72
2023-03-25T03:26:04.152Z,66.43
2023-03-25T03:29:24.929Z,66.87
2023-03-25T03:32:32.472Z,67.40
2023-03-25T03:35:42.397Z,67.75
2023-03-25T03:39:00.259Z,67.97
2023-03-25T03:42:18.562Z,67.76
2023-03-25T03:45:35.651Z,67.73
2023-03-25T03:48:48.123Z,67.67
2023-03-25T03:52:10.651Z,67.53
2023-03-25T03:55:20.956Z,67.12
2023-03-25T03:58:30.904Z,67.02
2023-03-25T04:05:20.851Z,67.36
2023-03-25T04:08:43.477Z,67.43
2023-03-25T04:12:02.164Z,67.62
2023-03-25T04:15:09.583Z,67.83
2023-03-25T04:18:14.446Z,68.10
2023-03-25T04:21:18.122Z,68.35
2023-03-25T04:24:30.848Z,68.73
2023-03-25T04:27:37.202Z,69.13
2023-03-25T04:30:40.305Z,69.48
2023-03-25T04:33:48.866Z,70.09
2023-03-25T04:36:55.629Z,70.75
2023-03-25T04:40:00.696Z,71.19
2023-03-25T04:43:06.519Z,71.71
2023-03-25T04:46:13.554Z,71.95
2023-03-25T04:49:22.791Z,72.10
2023-03-25T04:52:26.458Z,72.20
2023-03-25T04:55:34.749Z,72.17
2023-03-25T04:58:39.814Z,72.10
2023-03-25T05:01:45.340Z,71.90
2023-03-25T05:04:47.924Z,71.75
2023-03-25T05:07:58.573Z,71.46
2023-03-25T05:11:02.715Z,71.12
2023-03-25T05:14:07.608Z,70.68
2023-03-25T05:17:12.146Z,70.46
2023-03-25T05:20:19.978Z,70.16
2023-03-25T05:23:25.478Z,69.80
2023-03-25T05:26:36.534Z,69.52
2023-03-25T05:29:44.060Z,69.16
2023-03-25T05:32:56.442Z,68.92
2023-03-25T05:36:01.551Z,68.65
2023-03-25T05:39:05.324Z,68.48
2023-03-25T05:42:15.425Z,68.15
2023-03-25T05:45:23.162Z,67.97
2023-03-25T05:48:28.408Z,67.97
2023-03-25T05:51:38.826Z,67.84
2023-03-25T05:54:51.456Z,67.82
2023-03-25T05:57:54.094Z,67.98
2023-03-25T06:05:23.206Z,67.53
2023-03-25T06:08:29.491Z,67.10
2023-03-25T06:11:42.872Z,66.94
2023-03-25T06:14:53.418Z,66.77
2023-03-25T06:18:01.131Z,66.36
2023-03-25T06:21:05.673Z,66.42
2023-03-25T06:24:11.901Z,66.69
2023-03-25T06:27:19.129Z,66.82
2023-03-25T06:30:21.674Z,67.05
2023-03-25T06:33:45.125Z,67.19
2023-03-25T06:36:53.607Z,67.08
2023-03-25T06:39:58.958Z,66.92
2023-03-25T06:43:02.680Z,67.00
2023-03-25T06:46:34.898Z,66.97
2023-03-25T06:49:56.143Z,66.94
2023-03-25T06:52:59.042Z,66.55
2023-03-25T06:56:04.586Z,66.28
2023-03-25T06:59:10.050Z,65.97
2023-03-25T07:02:16.825Z,65.94
2023-03-25T07:05:21.958Z,65.78
2023-03-25T07:08:26.638Z,65.47
2023-03-25T07:11:33.836Z,65.43
2023-03-25T07:14:38.388Z,65.26
2023-03-25T07:17:54.792Z,64.91
2023-03-25T07:21:58.642Z,64.72
2023-03-25T07:25:18.715Z,64.28
2023-03-25T07:29:17.025Z,64.16
2023-03-25T07:32:35.088Z,63.70
2023-03-25T07:36:21.231Z,63.47
2023-03-25T07:40:03.078Z,63.74
2023-03-25T07:43:43.120Z,63.84
2023-03-25T07:47:28.763Z,63.14
2023-03-25T07:50:40.692Z,62.57
2023-03-25T07:54:25.759Z,62.60
2023-03-25T07:58:03.862Z,62.48
2023-03-25T08:01:20.974Z,62.44
2023-03-25T08:04:30.842Z,62.24
2023-03-25T08:07:37.684Z,62.43
2023-03-25T08:10:44.163Z,62.14
2023-03-25T08:13:57.054Z,61.89
2023-03-25T08:17:07.890Z,61.71
2023-03-25T08:20:16.608Z,61.91
2023-03-25T08:23:26.945Z,61.50
2023-03-25T08:26:33.947Z,61.31
2023-03-25T08:30:05.382Z,61.45
2023-03-25T08:33:11.748Z,61.13
2023-03-25T08:36:31.415Z,60.90
2023-03-25T08:39:40.276Z,60.88
2023-03-25T08:42:48.168Z,61.11
2023-03-25T08:45:55.344Z,60.98
2023-03-25T08:48:57.829Z,61.23
2023-03-25T08:52:02.305Z,61.22
2023-03-25T08:55:12.229Z,61.20
2023-03-25T08:58:21.052Z,61.36
2023-03-25T09:01:41.773Z,61.34
2023-03-25T09:04:45.506Z,61.49
2023-03-25T09:11:36.844Z,62.04
2023-03-25T09:14:41.386Z,61.48
2023-03-25T09:18:10.479Z,60.60
2023-03-25T09:22:23.929Z,59.52
2023-03-25T09:26:03.279Z,59.58
2023-03-25T09:29:09.342Z,59.42
2023-03-25T09:32:18.920Z,59.48
2023-03-25T09:35:22.035Z,59.46
2023-03-25T09:38:36.749Z,59.19
2023-03-25T09:42:00.245Z,59.01
2023-03-25T09:45:33.539Z,59.73
2023-03-25T09:48:40.382Z,59.94
2023-03-25T09:51:55.189Z,59.68
2023-03-25T09:55:06.206Z,59.23
2023-03-25T09:58:43.378Z,59.16
2023-03-25T10:05:36.082Z,59.46
2023-03-25T10:08:39.845Z,58.81
2023-03-25T10:12:10.560Z,58.90
2023-03-25T10:16:22.972Z,59.10
2023-03-25T10:20:12.279Z,58.99
2023-03-25T10:23:59.250Z,59.14
2023-03-25T10:27:28.475Z,59.24
2023-03-25T10:30:46.209Z,59.33
2023-03-25T10:33:59.330Z,59.39
2023-03-25T10:37:10.767Z,59.01
2023-03-25T10:40:29.338Z,58.83
2023-03-25T10:43:39.423Z,59.15
2023-03-25T10:47:41.262Z,59.51
2023-03-25T10:50:47.025Z,59.76
2023-03-25T10:53:53.125Z,60.02
2023-03-25T10:57:01.949Z,59.73
2023-03-25T11:00:26.256Z,59.29
2023-03-25T11:03:34.067Z,58.50
2023-03-25T11:06:47.397Z,58.04
2023-03-25T11:09:56.941Z,57.29
2023-03-25T11:13:03.977Z,56.82
2023-03-25T11:16:14.050Z,56.06
2023-03-25T11:19:39.970Z,54.26
2023-03-25T11:22:51.403Z,52.82
2023-03-25T11:25:57.232Z,52.32
2023-03-25T11:29:18.672Z,52.07
2023-03-25T11:32:46.881Z,52.70
2023-03-25T11:35:55.387Z,53.66
2023-03-25T11:39:24.457Z,53.83
2023-03-25T11:42:49.301Z,54.24
2023-03-25T11:45:54.546Z,54.51
2023-03-25T11:49:12.326Z,54.11
2023-03-25T11:52:23.749Z,54.14
2023-03-25T11:55:43.798Z,54.14
2023-03-25T11:58:51.671Z,54.54
2023-03-25T12:02:05.087Z,54.96
2023-03-25T12:05:14.065Z,55.57
2023-03-25T12:08:24.874Z,56.26
2023-03-25T12:11:58.170Z,56.94
2023-03-25T12:15:31.555Z,57.13
2023-03-25T12:19:11.634Z,57.82
2023-03-25T12:22:26.163Z,58.21
2023-03-25T12:25:52.196Z,58.41
2023-03-25T12:41:23.049Z,60.85
2023-03-25T12:44:56.631Z,61.21
2023-03-25T12:48:33.155Z,61.70
2023-03-25T12:51:53.105Z,62.62
2023-03-25T12:54:59.371Z,62.97
2023-03-25T12:58:34.381Z,63.06
2023-03-25T13:02:20.974Z,63.64
2023-03-25T13:06:45.619Z,63.48
2023-03-25T13:10:28.607Z,63.82
2023-03-25T13:13:36.247Z,63.91
2023-03-25T13:17:05.548Z,64.15
2023-03-25T13:20:10.838Z,64.27
2023-03-25T13:23:24.795Z,63.26
2023-03-25T13:26:59.392Z,62.80
2023-03-25T13:31:04.153Z,62.30
2023-03-25T13:35:26.562Z,61.80
2023-03-25T13:39:48.265Z,60.47
2023-03-25T13:43:37.885Z,59.59
2023-03-25T13:47:32.578Z,58.97
2023-03-25T13:51:03.495Z,57.60
2023-03-25T13:54:52.380Z,57.07
2023-03-25T14:06:28.263Z,57.33
2023-03-25T14:10:45.685Z,58.03
2023-03-25T14:14:40.075Z,58.94
2023-03-25T14:19:12.550Z,59.33
2023-03-25T14:26:52.358Z,60.22
2023-03-25T14:30:15.934Z,60.46
2023-03-25T14:39:06.861Z,61.29
2023-03-25T14:43:06.694Z,61.50
2023-03-25T14:46:53.388Z,61.61
2023-03-25T14:50:35.202Z,61.74
2023-03-25T15:08:41.667Z,63.33
2023-03-25T15:32:48.417Z,64.99
2023-03-25T15:41:35.691Z,65.25
2023-03-25T15:46:02.646Z,65.53
2023-03-25T16:04:46.599Z,66.25
2023-03-25T16:08:24.324Z,66.36
2023-03-25T16:22:57.282Z,66.83
2023-03-25T16:26:51.120Z,66.91
2023-03-25T16:36:07.809Z,66.95
2023-03-25T16:40:12.872Z,67.33
2023-03-25T17:10:13.212Z,67.97
2023-03-25T17:19:33.342Z,68.39
2023-03-25T17:27:45.127Z,69.11
2023-03-25T17:30:59.015Z,70.24
2023-03-25T17:34:23.940Z,70.51
2023-03-25T17:37:56.265Z,71.28
2023-03-25T17:41:11.121Z,71.91
2023-03-25T17:44:21.444Z,72.04
2023-03-25T17:47:41.490Z,72.25
2023-03-25T17:50:52.901Z,72.41
2023-03-25T17:54:00.766Z,73.05
2023-03-25T17:57:11.676Z,73.65
2023-03-25T18:00:18.148Z,74.25
2023-03-25T18:05:33.221Z,75.48
2023-03-25T18:08:41.758Z,76.15
2023-03-25T18:11:52.072Z,76.96
2023-03-25T18:15:05.598Z,77.72
2023-03-25T18:18:15.925Z,78.72
2023-03-25T18:22:19.954Z,79.73
2023-03-25T18:31:32.008Z,82.14
2023-03-25T18:35:52.799Z,83.67
2023-03-25T18:55:33.459Z,95.79
2023-03-25T18:59:07.532Z,99.70
2023-03-25T19:02:57.206Z,100.00
2023-03-25T19:11:11.832Z,100.00
2023-03-25T19:14:57.391Z,100.00
2023-03-25T19:19:03.661Z,100.00
2023-03-25T19:23:08.604Z,100.00
2023-03-25T19:27:35.044Z,100.00
2023-03-25T19:36:24.369Z,100.00
2023-03-25T19:44:20.722Z,100.00
2023-03-25T19:48:00.954Z,100.00
2023-03-25T19:51:18.487Z,100.00
2023-03-25T19:54:30.840Z,100.00
2023-03-25T19:57:35.058Z,100.00
2023-03-25T20:00:46.968Z,100.00
2023-03-25T20:04:38.757Z,100.00
2023-03-25T20:07:49.820Z,100.00
2023-03-25T20:11:06.966Z,100.00
2023-03-25T20:14:14.600Z,100.00
2023-03-25T20:17:40.563Z,100.00
2023-03-25T20:21:03.480Z,100.00
2023-03-25T20:24:18.645Z,100.00
2023-03-25T20:27:31.805Z,100.00
2023-03-25T20:30:38.962Z,100.00
2023-03-25T20:33:49.660Z,100.00
2023-03-25T20:36:57.449Z,100.00
2023-03-25T20:40:11.842Z,100.00
2023-03-25T20:43:34.654Z,100.00
2023-03-25T20:46:43.747Z,100.00
2023-03-25T20:49:52.860Z,100.00
2023-03-25T20:54:18.236Z,100.00
2023-03-25T20:58:04.543Z,100.00
2023-03-25T21:03:05.333Z,100.00
2023-03-25T21:06:24.476Z,100.00
2023-03-25T21:09:34.613Z,100.00
2023-03-25T21:12:49.011Z,100.00
2023-03-25T21:16:01.570Z,100.00
2023-03-25T21:19:15.733Z,100.00
2023-03-25T21:22:24.309Z,100.00
2023-03-25T21:25:37.647Z,100.00
2023-03-25T21:28:44.332Z,100.00
2023-03-25T21:31:52.298Z,100.00
2023-03-25T21:35:00.468Z,100.00
2023-03-25T21:38:09.904Z,100.00
2023-03-25T21:41:17.091Z,100.00
2023-03-25T21:44:28.691Z,100.00
2023-03-25T21:47:38.193Z,100.00
2023-03-25T21:50:46.153Z,100.00
2023-03-25T21:53:52.387Z,100.00
2023-03-25T21:56:58.797Z,100.00
2023-03-25T22:00:07.188Z,100.00
2023-03-25T22:05:25.616Z,100.00
2023-03-25T22:08:30.161Z,100.00
2023-03-25T22:11:37.848Z,100.00
2023-03-25T22:14:46.111Z,100.00
2023-03-25T22:17:51.551Z,100.00
2023-03-25T22:21:23.822Z,100.00
2023-03-25T22:24:32.234Z,100.00
2023-03-25T22:27:43.938Z,100.00
2023-03-25T22:30:52.525Z,100.00
2023-03-25T22:34:02.431Z,100.00
2023-03-25T22:37:08.669Z,100.00
2023-03-25T22:40:17.199Z,100.00
2023-03-25T22:43:23.665Z,100.00
2023-03-25T22:46:29.609Z,100.00
2023-03-25T22:49:39.891Z,100.00
2023-03-25T22:52:43.781Z,100.00
2023-03-25T22:55:55.450Z,100.00
2023-03-25T22:59:02.368Z,100.00
2023-03-25T23:02:14.205Z,100.00
2023-03-25T23:05:20.022Z,100.00
2023-03-25T23:08:29.889Z,100.00
2023-03-25T23:11:36.041Z,100.00
2023-03-25T23:14:48.856Z,100.00
2023-03-25T23:18:01.462Z,100.00
2023-03-25T23:21:09.855Z,100.00
2023-03-25T23:24:17.957Z,100.00
2023-03-25T23:27:28.464Z,100.00
2023-03-25T23:30:40.110Z,100.00
2023-03-25T23:33:45.885Z,100.00
2023-03-25T23:36:50.851Z,100.00
2023-03-25T23:40:00.607Z,100.00
2023-03-25T23:43:05.574Z,100.00
2023-03-25T23:46:12.755Z,100.00
2023-03-25T23:49:20.253Z,100.00
2023-03-25T23:52:32.838Z,100.00
2023-03-25T23:55:37.269Z,100.00
2023-03-25T23:58:40.606Z,100.00
